createdAt,value
2023-02-11T00:01:42.942Z,62.91
2023-02-11T00:04:12.154Z,62.27
2023-02-11T00:06:40.247Z,62.39
2023-02-11T00:09:08.494Z,62.83
2023-02-11T00:11:36.456Z,62.99
2023-02-11T00:14:07.945Z,62.35
2023-02-11T00:16:36.084Z,62.59
2023-02-11T00:19:06.090Z,62.23
2023-02-11T00:21:36.122Z,62.84
2023-02-11T00:24:04.238Z,62.25
2023-02-11T00:26:34.252Z,62.56
2023-02-11T00:29:03.102Z,62.48
2023-02-11T00:31:32.839Z,62.03
2023-02-11T00:34:00.798Z,62.30
2023-02-11T00:36:30.667Z,62.43
2023-02-11T00:39:00.793Z,62.28
2023-02-11T00:41:29.294Z,62.08
2023-02-11T00:43:57.376Z,62.81
2023-02-11T00:46:25.329Z,62.31
2023-02-11T00:48:55.066Z,61.76
2023-02-11T00:51:23.049Z,61.33
2023-02-11T00:53:51.471Z,61.99
2023-02-11T00:56:21.169Z,62.17
2023-02-11T00:58:49.136Z,61.30
2023-02-11T01:01:18.518Z,61.52
2023-02-11T01:03:46.410Z,61.09
2023-02-11T01:06:14.355Z,61.57
2023-02-11T01:08:42.408Z,61.82
2023-02-11T01:11:15.105Z,61.71
2023-02-11T01:13:47.976Z,61.86
2023-02-11T01:16:17.727Z,62.38
2023-02-11T01:18:47.045Z,62.58
2023-02-11T01:21:15.005Z,62.70
2023-02-11T01:23:44.323Z,62.83
2023-02-11T01:26:12.992Z,62.60
2023-02-11T01:28:41.002Z,62.49
2023-02-11T01:31:10.313Z,62.17
2023-02-11T01:33:38.245Z,63.38
2023-02-11T01:36:08.767Z,62.87
2023-02-11T01:38:37.093Z,62.68
2023-02-11T01:41:07.512Z,62.89
2023-02-11T01:43:39.035Z,62.37
2023-02-11T01:46:24.587Z,62.96
2023-02-11T01:48:56.733Z,63.06
2023-02-11T01:51:28.664Z,62.40
2023-02-11T01:54:15.710Z,62.99
2023-02-11T01:57:04.720Z,63.23
2023-02-11T01:59:38.721Z,63.58
2023-02-11T02:02:13.010Z,63.25
2023-02-11T02:04:46.287Z,62.89
2023-02-11T02:07:38.553Z,62.66
2023-02-11T02:10:12.422Z,62.84
2023-02-11T02:12:40.348Z,63.56
2023-02-11T02:15:23.445Z,63.23
2023-02-11T02:17:59.896Z,64.12
2023-02-11T02:20:53.748Z,63.67
2023-02-11T02:23:36.748Z,63.90
2023-02-11T02:26:39.293Z,63.48
2023-02-11T02:29:29.215Z,63.32
2023-02-11T02:32:27.164Z,63.85
2023-02-11T02:35:02.784Z,63.77
2023-02-11T02:37:35.987Z,63.91
2023-02-11T02:40:05.905Z,63.82
2023-02-11T02:42:34.417Z,63.15
2023-02-11T02:45:02.373Z,63.93
2023-02-11T02:47:31.696Z,63.30
2023-02-11T02:49:59.586Z,63.92
2023-02-11T02:52:37.455Z,63.20
2023-02-11T02:55:21.692Z,63.49
2023-02-11T02:58:07.311Z,64.03
2023-02-11T03:00:44.283Z,64.16
2023-02-11T03:03:28.146Z,64.82
2023-02-11T03:06:01.981Z,64.98
2023-02-11T03:08:35.613Z,65.41
2023-02-11T03:11:05.688Z,65.43
2023-02-11T03:13:36.930Z,64.44
2023-02-11T03:16:10.874Z,64.26
2023-02-11T03:18:43.392Z,65.00
2023-02-11T03:21:12.597Z,64.19
2023-02-11T03:23:45.451Z,65.04
2023-02-11T03:26:19.829Z,66.38
2023-02-11T03:28:55.052Z,65.49
2023-02-11T03:31:29.663Z,64.59
2023-02-11T03:34:03.842Z,64.96
2023-02-11T03:36:38.595Z,64.89
2023-02-11T03:39:08.345Z,65.52
2023-02-11T03:41:37.624Z,65.12
2023-02-11T03:44:07.382Z,64.81
2023-02-11T03:46:40.137Z,64.89
2023-02-11T03:49:12.175Z,65.18
2023-02-11T03:51:41.365Z,64.73
2023-02-11T03:54:13.507Z,64.73
2023-02-11T03:56:48.142Z,64.49
2023-02-11T03:59:16.037Z,64.84
2023-02-11T04:01:43.981Z,65.45
2023-02-11T04:04:13.248Z,64.64
2023-02-11T04:06:41.178Z,64.67
2023-02-11T04:09:09.061Z,64.99
2023-02-11T04:11:36.897Z,65.41
2023-02-11T04:14:05.074Z,65.43
2023-02-11T04:16:33.128Z,65.31
2023-02-11T04:19:01.622Z,65.74
2023-02-11T04:21:30.825Z,65.60
2023-02-11T04:23:58.666Z,66.61
2023-02-11T04:26:26.568Z,65.90
2023-02-11T04:28:54.475Z,67.32
2023-02-11T04:31:22.441Z,67.40
2023-02-11T04:33:50.350Z,67.18
2023-02-11T04:36:18.202Z,66.55
2023-02-11T04:38:47.402Z,68.39
2023-02-11T04:41:15.525Z,67.99
2023-02-11T04:43:43.412Z,68.80
2023-02-11T04:46:11.378Z,68.84
2023-02-11T04:48:39.352Z,69.03
2023-02-11T04:51:07.599Z,68.70
2023-02-11T04:53:35.489Z,68.46
2023-02-11T04:56:05.057Z,69.00
2023-02-11T04:58:33.091Z,69.59
2023-02-11T05:01:07.065Z,69.08
2023-02-11T05:03:35.362Z,68.85
2023-02-11T05:06:03.844Z,69.58
2023-02-11T05:08:31.781Z,70.19
2023-02-11T05:11:02.115Z,69.15
2023-02-11T05:13:32.025Z,70.35
2023-02-11T05:15:59.898Z,69.71
2023-02-11T05:18:27.766Z,69.90
2023-02-11T05:20:55.773Z,70.26
2023-02-11T05:23:23.633Z,70.37
2023-02-11T05:25:51.723Z,70.79
2023-02-11T05:28:19.893Z,71.62
2023-02-11T05:30:49.192Z,71.42
2023-02-11T05:33:17.130Z,71.15
2023-02-11T05:35:45.054Z,72.63
2023-02-11T05:38:13.086Z,71.98
2023-02-11T05:40:40.937Z,71.23
2023-02-11T05:43:08.864Z,72.06
2023-02-11T05:45:36.751Z,71.16
2023-02-11T05:48:06.413Z,71.74
2023-02-11T05:50:34.362Z,71.73
2023-02-11T05:53:02.272Z,71.92
2023-02-11T05:55:30.306Z,71.56
2023-02-11T05:57:58.628Z,72.51
2023-02-11T06:00:27.083Z,72.33
2023-02-11T06:02:55.225Z,72.85
2023-02-11T06:05:24.516Z,73.79
2023-02-11T06:07:52.398Z,73.18
2023-02-11T06:10:20.304Z,73.27
2023-02-11T06:12:48.319Z,74.13
2023-02-11T06:15:16.177Z,73.15
2023-02-11T06:17:44.019Z,73.89
2023-02-11T06:20:12.948Z,74.48
2023-02-11T06:22:42.329Z,74.68
2023-02-11T06:25:10.982Z,73.96
2023-02-11T06:27:39.420Z,74.79
2023-02-11T06:30:08.750Z,76.12
2023-02-11T06:32:44.428Z,74.81
2023-02-11T06:35:13.858Z,75.70
2023-02-11T06:37:43.883Z,75.47
2023-02-11T06:40:12.489Z,75.85
2023-02-11T06:42:40.641Z,76.33
2023-02-11T06:45:11.021Z,76.76
2023-02-11T06:47:39.230Z,75.09
2023-02-11T06:50:09.553Z,76.53
2023-02-11T06:52:37.475Z,77.18
2023-02-11T06:55:07.479Z,78.19
2023-02-11T06:57:35.463Z,77.53
2023-02-11T07:00:03.732Z,77.44
2023-02-11T07:02:32.211Z,77.32
2023-02-11T07:05:00.154Z,76.76
2023-02-11T07:07:29.078Z,77.41
2023-02-11T07:09:56.996Z,75.51
2023-02-11T07:12:26.348Z,76.20
2023-02-11T07:14:54.273Z,76.96
2023-02-11T07:17:22.234Z,75.93
2023-02-11T07:19:50.234Z,75.27
2023-02-11T07:22:18.196Z,75.81
2023-02-11T07:24:46.396Z,75.97
2023-02-11T07:27:14.476Z,75.06
2023-02-11T07:29:45.976Z,75.77
2023-02-11T07:32:14.475Z,76.22
2023-02-11T07:34:42.549Z,74.75
2023-02-11T07:37:10.956Z,75.52
2023-02-11T07:39:38.978Z,74.74
2023-02-11T07:42:07.424Z,74.69
2023-02-11T07:44:37.320Z,75.86
2023-02-11T07:47:06.967Z,74.94
2023-02-11T07:49:34.960Z,74.71
2023-02-11T07:52:02.870Z,75.08
2023-02-11T07:54:30.824Z,75.24
2023-02-11T07:56:58.827Z,74.19
2023-02-11T07:59:27.492Z,74.38
2023-02-11T08:01:55.532Z,74.65
2023-02-11T08:04:24.881Z,75.14
2023-02-11T08:06:56.481Z,75.92
2023-02-11T08:09:25.993Z,75.77
2023-02-11T08:11:53.981Z,74.50
2023-02-11T08:14:21.990Z,75.30
2023-02-11T08:16:50.006Z,74.99
2023-02-11T08:19:18.211Z,76.68
2023-02-11T08:21:47.507Z,75.50
2023-02-11T08:24:15.465Z,74.93
2023-02-11T08:26:44.281Z,75.73
2023-02-11T08:29:14.501Z,75.52
2023-02-11T08:31:44.862Z,75.44
2023-02-11T08:34:14.571Z,75.57
2023-02-11T08:36:44.827Z,75.36
2023-02-11T08:39:20.346Z,76.38
2023-02-11T08:41:49.801Z,76.81
2023-02-11T08:44:17.970Z,77.00
2023-02-11T08:46:46.047Z,77.62
2023-02-11T08:49:15.053Z,76.15
2023-02-11T08:51:43.397Z,76.02
2023-02-11T08:54:11.436Z,76.35
2023-02-11T08:56:41.187Z,76.02
2023-02-11T08:59:10.211Z,77.35
2023-02-11T09:01:38.261Z,76.87
2023-02-11T09:04:06.555Z,77.50
2023-02-11T09:06:34.696Z,77.54
2023-02-11T09:09:02.649Z,78.46
2023-02-11T09:11:33.733Z,77.33
2023-02-11T09:14:04.386Z,77.12
2023-02-11T09:16:34.447Z,77.83
2023-02-11T09:19:04.363Z,78.15
2023-02-11T09:21:32.669Z,76.95
2023-02-11T09:24:00.724Z,76.63
2023-02-11T09:26:31.226Z,77.71
2023-02-11T09:29:00.036Z,77.43
2023-02-11T09:31:31.478Z,76.70
2023-02-11T09:34:13.751Z,76.62
2023-02-11T09:36:43.294Z,77.39
2023-02-11T09:39:14.593Z,77.44
2023-02-11T09:42:00.722Z,76.86
2023-02-11T09:44:31.009Z,76.71
2023-02-11T09:47:03.945Z,76.92
2023-02-11T09:49:40.034Z,77.56
2023-02-11T09:52:13.422Z,78.52
2023-02-11T09:54:50.779Z,77.53
2023-02-11T09:57:28.351Z,76.71
2023-02-11T09:59:57.744Z,78.19
2023-02-11T10:02:36.437Z,76.69
2023-02-11T10:05:18.921Z,77.11
2023-02-11T10:07:52.669Z,77.30
2023-02-11T10:10:36.913Z,78.46
2023-02-11T10:13:26.277Z,79.49
2023-02-11T10:16:05.389Z,77.81
2023-02-11T10:18:47.490Z,77.66
2023-02-11T10:21:27.820Z,79.07
2023-02-11T10:24:01.425Z,79.17
2023-02-11T10:26:32.155Z,79.08
2023-02-11T10:29:03.380Z,78.25
2023-02-11T10:31:38.753Z,80.28
2023-02-11T10:34:12.176Z,79.11
2023-02-11T10:36:42.460Z,80.36
2023-02-11T10:39:15.619Z,79.91
2023-02-11T10:41:45.073Z,80.78
2023-02-11T10:44:23.916Z,80.52
2023-02-11T10:46:52.496Z,81.53
2023-02-11T10:49:43.825Z,81.26
2023-02-11T10:52:19.499Z,79.98
2023-02-11T10:55:06.902Z,81.03
2023-02-11T10:57:37.531Z,81.86
2023-02-11T11:00:24.239Z,82.79
2023-02-11T11:02:59.445Z,81.56
2023-02-11T11:05:32.597Z,81.32
2023-02-11T11:08:03.081Z,81.45
2023-02-11T11:10:37.514Z,83.20
2023-02-11T11:13:05.481Z,82.02
2023-02-11T11:15:33.614Z,81.68
2023-02-11T11:18:21.963Z,82.67
2023-02-11T11:21:01.010Z,82.59
2023-02-11T11:23:30.165Z,81.88
2023-02-11T11:26:07.371Z,82.00
2023-02-11T11:28:40.386Z,83.48
2023-02-11T11:31:16.123Z,83.36
2023-02-11T11:33:45.526Z,83.00
2023-02-11T11:36:17.670Z,84.21
2023-02-11T11:38:50.310Z,82.69
2023-02-11T11:41:22.326Z,82.01
2023-02-11T11:43:58.865Z,81.88
2023-02-11T11:46:29.751Z,82.92
2023-02-11T11:49:16.970Z,82.17
2023-02-11T11:51:57.620Z,82.73
2023-02-11T11:54:29.199Z,83.11
2023-02-11T11:57:03.691Z,82.53
2023-02-11T11:59:32.582Z,82.17
2023-02-11T12:02:18.164Z,83.70
2023-02-11T12:05:02.303Z,82.94
2023-02-11T12:07:51.368Z,82.13
2023-02-11T12:10:33.163Z,82.00
2023-02-11T12:13:14.855Z,82.12
2023-02-11T12:15:55.107Z,82.01
2023-02-11T12:18:38.718Z,83.47
2023-02-11T12:21:15.453Z,81.90
2023-02-11T12:23:57.233Z,81.51
2023-02-11T12:26:32.573Z,81.21
2023-02-11T12:29:10.045Z,80.43
2023-02-11T12:31:53.577Z,81.49
2023-02-11T12:34:38.976Z,81.90
2023-02-11T12:37:20.164Z,82.23
2023-02-11T12:39:52.976Z,83.13
2023-02-11T12:42:52.631Z,83.16
2023-02-11T12:45:31.649Z,82.54
2023-02-11T12:48:14.137Z,81.26
2023-02-11T12:51:00.564Z,81.83
2023-02-11T12:53:47.913Z,82.12
2023-02-11T12:56:24.105Z,81.86
2023-02-11T12:58:57.238Z,82.35
2023-02-11T13:01:30.312Z,81.36
2023-02-11T13:04:05.915Z,80.58
2023-02-11T13:06:38.475Z,81.56
2023-02-11T13:09:13.116Z,82.12
2023-02-11T13:11:51.744Z,81.91
2023-02-11T13:14:28.055Z,82.79
2023-02-11T13:16:59.779Z,84.03
2023-02-11T13:19:33.708Z,83.68
2023-02-11T13:22:12.642Z,84.12
2023-02-11T13:24:45.382Z,83.75
2023-02-11T13:27:26.234Z,83.08
2023-02-11T13:30:28.390Z,83.14
2023-02-11T13:33:21.481Z,83.49
2023-02-11T13:36:11.207Z,82.49
2023-02-11T13:38:39.951Z,81.90
2023-02-11T13:41:21.176Z,81.68
2023-02-11T13:44:02.959Z,81.59
2023-02-11T13:46:53.891Z,80.74
2023-02-11T13:49:25.417Z,82.32
2023-02-11T13:51:55.849Z,81.78
2023-02-11T13:54:29.474Z,81.45
2023-02-11T13:57:33.610Z,82.98
2023-02-11T14:00:03.471Z,82.01
2023-02-11T14:02:53.690Z,81.98
2023-02-11T14:05:48.645Z,82.80
2023-02-11T14:08:40.816Z,82.46
2023-02-11T14:11:31.182Z,82.83
2023-02-11T14:14:18.237Z,84.09
2023-02-11T14:17:22.757Z,85.17
2023-02-11T14:19:56.169Z,83.31
2023-02-11T14:22:28.232Z,84.22
2023-02-11T14:24:58.812Z,83.83
2023-02-11T14:27:31.568Z,84.35
2023-02-11T14:30:11.785Z,83.30
2023-02-11T14:32:51.160Z,83.26
2023-02-11T14:35:31.210Z,84.47
2023-02-11T14:38:07.627Z,84.53
2023-02-11T14:40:42.997Z,83.63
2023-02-11T14:43:14.849Z,84.95
2023-02-11T14:45:45.972Z,86.10
2023-02-11T14:48:17.661Z,86.88
2023-02-11T14:50:52.460Z,86.10
2023-02-11T14:53:25.164Z,86.34
2023-02-11T14:55:54.850Z,86.13
2023-02-11T14:58:24.792Z,85.67
2023-02-11T15:00:55.984Z,86.14
2023-02-11T15:03:36.124Z,86.06
2023-02-11T15:06:08.100Z,86.59
2023-02-11T15:08:38.856Z,85.89
2023-02-11T15:11:13.109Z,84.53
2023-02-11T15:13:47.426Z,85.39
2023-02-11T15:16:19.406Z,86.43
2023-02-11T15:18:51.673Z,85.23
2023-02-11T15:21:26.869Z,85.70
2023-02-11T15:24:03.159Z,84.66
2023-02-11T15:26:31.381Z,86.70
2023-02-11T15:28:59.582Z,87.00
2023-02-11T15:31:29.848Z,85.88
2023-02-11T15:34:08.626Z,87.18
2023-02-11T15:36:39.385Z,85.69
2023-02-11T15:39:32.397Z,85.15
2023-02-11T15:42:18.857Z,85.95
2023-02-11T15:44:52.269Z,85.64
2023-02-11T15:47:23.754Z,86.16
2023-02-11T15:49:51.706Z,85.94
2023-02-11T15:52:26.911Z,86.96
2023-02-11T15:54:57.360Z,86.48
2023-02-11T15:57:25.323Z,86.55
2023-02-11T15:59:55.054Z,86.54
2023-02-11T16:02:30.182Z,86.18
2023-02-11T16:05:00.400Z,85.91
2023-02-11T16:07:51.743Z,86.86
2023-02-11T16:10:25.610Z,87.42
2023-02-11T16:13:05.006Z,87.42
2023-02-11T16:15:45.787Z,86.76
2023-02-11T16:18:37.846Z,87.97
2023-02-11T16:21:14.555Z,86.68
2023-02-11T16:23:50.432Z,86.39
2023-02-11T16:26:25.963Z,85.58
2023-02-11T16:28:54.367Z,86.37
2023-02-11T16:31:22.538Z,86.53
2023-02-11T16:33:50.528Z,85.86
2023-02-11T16:36:18.661Z,85.16
2023-02-11T16:38:49.312Z,84.94
2023-02-11T16:41:17.251Z,86.31
2023-02-11T16:43:45.240Z,85.73
2023-02-11T16:46:16.845Z,86.66
2023-02-11T16:48:45.162Z,86.97
2023-02-11T16:51:13.238Z,86.25
2023-02-11T16:53:41.248Z,88.07
2023-02-11T16:56:16.750Z,86.87
2023-02-11T16:58:45.270Z,88.05
2023-02-11T17:01:14.277Z,87.48
2023-02-11T17:03:43.777Z,87.20
2023-02-11T17:06:12.689Z,86.86
2023-02-11T17:08:41.467Z,87.09
2023-02-11T17:11:09.369Z,86.09
2023-02-11T17:13:39.492Z,86.78
2023-02-11T17:16:13.158Z,86.89
2023-02-11T17:18:41.175Z,86.44
2023-02-11T17:21:09.379Z,87.06
2023-02-11T17:23:37.512Z,87.73
2023-02-11T17:26:06.140Z,87.71
2023-02-11T17:28:34.512Z,87.69
2023-02-11T17:31:08.260Z,87.43
2023-02-11T17:33:36.354Z,86.99
2023-02-11T17:36:06.109Z,87.26
2023-02-11T17:38:34.545Z,87.16
2023-02-11T17:41:03.470Z,87.11
2023-02-11T17:43:31.988Z,87.16
2023-02-11T17:46:00.297Z,88.42
2023-02-11T17:48:29.510Z,89.01
2023-02-11T17:50:57.482Z,88.69
2023-02-11T17:53:25.406Z,87.74
2023-02-11T17:55:53.508Z,87.08
2023-02-11T17:58:21.922Z,86.31
2023-02-11T18:00:49.886Z,86.26
2023-02-11T18:03:17.725Z,85.80
2023-02-11T18:05:47.032Z,86.86
2023-02-11T18:08:14.914Z,85.55
2023-02-11T18:10:43.392Z,86.43
2023-02-11T18:13:11.221Z,86.08
2023-02-11T18:15:39.574Z,85.42
2023-02-11T18:18:07.597Z,85.32
2023-02-11T18:20:35.504Z,85.20
2023-02-11T18:23:05.117Z,84.79
2023-02-11T18:25:33.179Z,85.36
2023-02-11T18:28:01.148Z,87.20
2023-02-11T18:30:29.176Z,85.73
2023-02-11T18:32:57.185Z,85.17
2023-02-11T18:35:25.191Z,84.89
2023-02-11T18:37:53.663Z,86.76
2023-02-11T18:40:23.287Z,86.06
2023-02-11T18:42:51.168Z,85.63
2023-02-11T18:45:19.268Z,85.68
2023-02-11T18:47:47.132Z,85.33
2023-02-11T18:50:16.086Z,86.64
2023-02-11T18:52:43.973Z,86.25
2023-02-11T18:55:12.086Z,86.48
2023-02-11T18:57:42.925Z,84.91
2023-02-11T19:00:12.027Z,85.36
2023-02-11T19:02:39.952Z,83.97
2023-02-11T19:05:08.499Z,85.82
2023-02-11T19:07:36.496Z,86.10
2023-02-11T19:10:05.312Z,87.64
2023-02-11T19:12:33.907Z,86.07
2023-02-11T19:15:03.335Z,86.65
2023-02-11T19:17:31.232Z,87.15
2023-02-11T19:19:59.195Z,86.41
2023-02-11T19:22:27.116Z,86.13
2023-02-11T19:24:54.982Z,86.57
2023-02-11T19:27:22.837Z,86.13
2023-02-11T19:29:50.721Z,86.12
2023-02-11T19:32:20.038Z,85.39
2023-02-11T19:34:47.899Z,85.12
2023-02-11T19:37:16.193Z,84.85
2023-02-11T19:39:44.496Z,84.68
2023-02-11T19:42:13.285Z,85.45
2023-02-11T19:44:41.144Z,84.61
2023-02-11T19:47:10.380Z,84.27
2023-02-11T19:49:39.725Z,83.85
2023-02-11T19:52:07.991Z,85.04
2023-02-11T19:54:35.961Z,84.57
2023-02-11T19:57:03.932Z,84.97
2023-02-11T19:59:32.317Z,84.44
2023-02-11T20:02:01.597Z,84.11
2023-02-11T20:04:32.164Z,84.07
2023-02-11T20:07:01.568Z,84.56
2023-02-11T20:09:31.144Z,85.73
2023-02-11T20:11:59.215Z,84.92
2023-02-11T20:14:28.125Z,84.19
2023-02-11T20:16:56.237Z,84.63
2023-02-11T20:19:24.103Z,84.21
2023-02-11T20:21:53.791Z,83.74
2023-02-11T20:24:24.617Z,84.09
2023-02-11T20:26:55.769Z,84.07
2023-02-11T20:29:31.067Z,83.51
2023-02-11T20:31:59.102Z,83.62
2023-02-11T20:34:27.088Z,83.65
2023-02-11T20:36:55.956Z,83.59
2023-02-11T20:39:26.795Z,83.56
2023-02-11T20:41:55.007Z,84.67
2023-02-11T20:44:23.634Z,84.57
2023-02-11T20:46:54.066Z,83.85
2023-02-11T20:49:24.365Z,84.87
2023-02-11T20:51:53.748Z,83.94
2023-02-11T20:54:22.669Z,84.56
2023-02-11T20:56:53.694Z,83.55
2023-02-11T20:59:21.978Z,84.05
2023-02-11T21:01:53.431Z,84.79
2023-02-11T21:04:24.320Z,84.61
2023-02-11T21:06:54.640Z,84.78
2023-02-11T21:09:24.346Z,84.11
2023-02-11T21:11:54.807Z,84.64
2023-02-11T21:14:24.704Z,84.28
2023-02-11T21:16:53.222Z,84.16
2023-02-11T21:19:21.226Z,83.98
2023-02-11T21:21:49.269Z,83.69
2023-02-11T21:24:17.146Z,83.67
2023-02-11T21:26:45.025Z,84.42
2023-02-11T21:29:14.249Z,84.03
2023-02-11T21:31:42.238Z,84.23
2023-02-11T21:34:11.174Z,84.57
2023-02-11T21:36:39.084Z,85.02
2023-02-11T21:39:06.986Z,83.68
2023-02-11T21:41:34.930Z,83.97
2023-02-11T21:44:02.949Z,83.74
2023-02-11T21:46:32.496Z,84.70
2023-02-11T21:49:01.047Z,83.44
2023-02-11T21:51:29.021Z,82.98
2023-02-11T21:53:58.550Z,82.53
2023-02-11T21:56:28.133Z,82.32
2023-02-11T21:58:57.374Z,82.36
2023-02-11T22:01:27.593Z,82.78
2023-02-11T22:03:57.150Z,83.39
2023-02-11T22:06:27.151Z,83.46
2023-02-11T22:08:55.947Z,82.02
2023-02-11T22:11:24.640Z,81.34
2023-02-11T22:13:55.210Z,81.07
2023-02-11T22:16:23.559Z,81.52
2023-02-11T22:18:51.575Z,81.96
2023-02-11T22:21:23.336Z,82.01
2023-02-11T22:23:52.185Z,81.93
2023-02-11T22:26:22.597Z,81.71
2023-02-11T22:28:51.493Z,82.77
2023-02-11T22:31:21.777Z,84.43
2023-02-11T22:33:49.829Z,82.99
2023-02-11T22:36:21.291Z,82.85
2023-02-11T22:38:49.948Z,83.09
2023-02-11T22:41:18.336Z,84.03
2023-02-11T22:43:47.635Z,83.12
2023-02-11T22:46:18.745Z,82.90
2023-02-11T22:48:47.280Z,82.11
2023-02-11T22:51:17.573Z,83.46
2023-02-11T22:53:51.177Z,82.88
2023-02-11T22:56:19.399Z,82.41
2023-02-11T22:58:48.063Z,83.11
2023-02-11T23:01:16.894Z,84.29
2023-02-11T23:03:45.548Z,82.94
2023-02-11T23:06:13.521Z,83.23
2023-02-11T23:08:42.940Z,82.69
2023-02-11T23:11:14.029Z,82.83
2023-02-11T23:13:42.932Z,82.85
2023-02-11T23:16:13.665Z,82.82
2023-02-11T23:18:43.227Z,83.43
2023-02-11T23:21:13.518Z,82.88
2023-02-11T23:23:41.447Z,83.36
2023-02-11T23:26:12.691Z,82.91
2023-02-11T23:28:41.578Z,82.22
2023-02-11T23:31:15.267Z,84.16
2023-02-11T23:33:43.188Z,83.45
2023-02-11T23:36:11.483Z,82.51
2023-02-11T23:38:39.434Z,82.10
2023-02-11T23:41:07.372Z,81.90
2023-02-11T23:43:36.782Z,83.09
2023-02-11T23:46:05.197Z,83.00
2023-02-11T23:48:33.768Z,83.29
2023-02-11T23:51:01.738Z,82.19
2023-02-11T23:53:29.611Z,81.25
2023-02-11T23:55:57.622Z,80.60
2023-02-11T23:58:25.565Z,81.85
